METAR Data
IDs: Format: Raw Decoded Include TAF

Data at: 0146 UTC 29 May 2022

LIBA 290055Z /////KT CAVOK 20/17 Q1002 RMK SCT SCT100 VIS MIN 9999 WIND THR11 /////KT WIND THR29 /////KT BLU

No METAR found for LIBC

LIBD 290120Z 28007KT CAVOK 19/18 Q1002

No METAR found for LIBF

No METAR found for LIBG

LIBP 290120Z AUTO 21005KT 9999 FEW025/// BKN140/// 18/15 Q1006

LIBR 282350Z 17006KT CAVOK 20/18 Q1003

LIBV 290055Z VRB03KT CAVOK 12/08 Q1003 RMK SKC VIS MIN 9999 WIND THR32 VRB02KT WIND THR14 VRB02KT BLU

LICA 290120Z AUTO 25003KT 200V300 7000 -TSRA NCD 17/17 Q1004

LICC 290120Z 26006KT CAVOK 17/16 Q1004

LICD 290120Z AUTO 31016KT 9999 SCT022/// 21/16 Q1007

No METAR found for LICG

LICJ 290120Z 17007KT CAVOK 18/15 Q1004

LICR 290120Z AUTO 36008KT 9999 -RA BKN098/// 19/17 Q1004 RETS

LICT 290055Z 15003KT 9999 SCT016 SCT025 18/15 Q1005 RMK BKN VIS MIN 9999 WIND THR13 15002KT BLU

LICZ 290055Z 27005KT 8000 SCT100 18/18 Q1004 RMK SCT VIS MIN 8000 WIND THR28 27003KT WIND THR10 26003KT A2966 BLU

LIEA 290120Z 21009KT CAVOK 19/19 Q1006

LIEE 290120Z 01010KT CAVOK 18/16 Q1007

LIED 290055Z 33004KT CAVOK 17/17 Q1007 RMK SKC VIS MIN 9999 WIND THR35 36002KT WIND THR17 32002KT BLU

LIEO 290120Z 23011KT CAVOK 19/12 Q1004

LIPR 290120Z AUTO 07007KT 040V100 9999 SCT019/// BKN053/// 18/15 Q1007

LIPY 290120Z AUTO 06005KT 020V090 9999 BKN045/// 19/15 Q1006

LIRA 290120Z 08005KT CAVOK 21/12 Q1004

LIRE 290055Z 06002KT CAVOK 20/17 Q1003 RMK SKC VIS MIN 9999 WIND THR13 00000KT WIND THR31/////KT BLU

LIRF 290120Z VRB02KT CAVOK 19/15 Q1003 NOSIG

No METAR found for LIRG

No METAR found for LIRH

No METAR found for LIRL

LIRM 290055Z 34002KT 9999 FEW025 SCT070 18/17 Q1003 RMK SCT VIS MIN 9999 WIND THR06 01002KT BLU

LIRN 290120Z 23002KT 9999 FEW020 20/19 Q1003 NOSIG

LIRP 290115Z 18004KT CAVOK 20/14 Q1003

LIRQ 290120Z VRB01KT CAVOK 21/13 Q1005

LIRS 290055Z 06008KT CAVOK 20/17 Q1003 RMK BKN FEW080 BKN160 VIS MIN 9999 WIND THR03 07008KT WIND THR21 07008KT BLU

LIRZ 290120Z AUTO 01008KT 350V050 9999 BKN120/// 18/14 Q1005

LMML 290115Z 29015KT 9999 FEW012 19/18 Q1005 RESHRA BECMG 9999 NSW

DTTA 290130Z AUTO 24009KT 190V290 9999 /// 21/09 Q1008

DTTJ 290100Z 32012KT 9999 FEW026 25/14 Q1009 NOSIG